createdAt,value
2023-04-21T00:00:53.023Z,4.39
2023-04-21T00:03:23.948Z,4.25
2023-04-21T00:05:53.740Z,3.74
2023-04-21T00:08:22.425Z,3.73
2023-04-21T00:10:51.564Z,3.56
2023-04-21T00:13:21.702Z,3.43
2023-04-21T00:15:50.249Z,3.33
2023-04-21T00:18:19.131Z,3.31
2023-04-21T00:20:48.532Z,3.29
2023-04-21T00:23:17.082Z,3.29
2023-04-21T00:25:45.740Z,3.19
2023-04-21T00:28:14.229Z,3.12
2023-04-21T00:30:44.243Z,2.78
2023-04-21T00:33:12.716Z,2.70
2023-04-21T00:35:41.412Z,2.68
2023-04-21T00:38:09.844Z,2.69
2023-04-21T00:40:38.319Z,2.77
2023-04-21T00:43:08.151Z,2.72
2023-04-21T00:45:36.706Z,2.76
2023-04-21T00:48:07.172Z,2.85
2023-04-21T00:50:35.958Z,2.92
2023-04-21T00:53:04.969Z,2.98
2023-04-21T00:55:33.508Z,3.03
2023-04-21T00:58:04.081Z,3.07
2023-04-21T01:00:32.747Z,3.03
2023-04-21T01:03:02.985Z,3.09
2023-04-21T01:05:33.922Z,3.15
2023-04-21T01:08:03.487Z,3.25
2023-04-21T01:10:31.992Z,3.28
2023-04-21T01:13:00.506Z,3.32
2023-04-21T01:15:31.171Z,3.36
2023-04-21T01:18:00.189Z,3.34
2023-04-21T01:20:29.960Z,3.33
2023-04-21T01:23:01.585Z,3.31
2023-04-21T01:25:30.405Z,3.32
2023-04-21T01:27:58.870Z,3.31
2023-04-21T01:30:27.490Z,3.33
2023-04-21T01:32:56.200Z,3.37
2023-04-21T01:35:26.317Z,3.41
2023-04-21T01:37:55.028Z,3.43
2023-04-21T01:40:25.118Z,3.49
2023-04-21T01:42:53.700Z,3.51
2023-04-21T01:45:22.239Z,3.50
2023-04-21T01:47:50.886Z,3.41
2023-04-21T01:50:19.514Z,3.46
2023-04-21T01:52:48.020Z,3.49
2023-04-21T01:55:17.269Z,3.53
2023-04-21T01:57:47.220Z,3.56
2023-04-21T02:00:16.665Z,3.58
2023-04-21T02:02:46.580Z,3.54
2023-04-21T02:05:15.291Z,3.48
2023-04-21T02:07:43.780Z,3.47
2023-04-21T02:10:12.575Z,3.52
2023-04-21T02:12:41.064Z,3.55
2023-04-21T02:15:13.596Z,3.50
2023-04-21T02:17:42.979Z,3.52
2023-04-21T02:20:13.584Z,3.55
2023-04-21T02:22:42.250Z,3.60
2023-04-21T02:25:11.108Z,3.61
2023-04-21T02:27:40.846Z,3.62
2023-04-21T02:30:10.453Z,3.50
2023-04-21T02:32:40.634Z,3.49
2023-04-21T02:35:10.008Z,3.51
2023-04-21T02:37:38.612Z,3.55
2023-04-21T02:40:08.554Z,3.59
2023-04-21T02:42:37.596Z,3.61
2023-04-21T02:45:06.890Z,3.65
2023-04-21T02:47:35.442Z,3.66
2023-04-21T02:50:07.672Z,3.72
2023-04-21T02:52:37.260Z,3.71
2023-04-21T02:55:06.389Z,3.71
2023-04-21T02:57:34.861Z,3.69
2023-04-21T03:00:05.080Z,3.71
2023-04-21T03:02:33.981Z,3.71
2023-04-21T03:05:02.770Z,3.67
2023-04-21T03:07:33.987Z,3.69
2023-04-21T03:10:03.188Z,3.63
2023-04-21T03:12:31.724Z,3.63
2023-04-21T03:15:00.759Z,3.62
2023-04-21T03:17:30.968Z,3.68
2023-04-21T03:20:01.747Z,3.68
2023-04-21T03:22:30.226Z,3.72
2023-04-21T03:25:00.376Z,3.71
2023-04-21T03:27:29.000Z,3.69
2023-04-21T03:29:58.562Z,3.70
2023-04-21T03:32:27.433Z,3.70
2023-04-21T03:34:56.387Z,3.71
2023-04-21T03:37:24.913Z,3.71
2023-04-21T03:39:53.450Z,3.73
2023-04-21T03:42:24.095Z,3.72
2023-04-21T03:44:52.818Z,3.73
2023-04-21T03:47:21.394Z,3.74
2023-04-21T03:49:50.060Z,3.77
2023-04-21T03:52:18.700Z,3.78
2023-04-21T03:54:47.357Z,3.80
2023-04-21T03:57:15.983Z,3.81
2023-04-21T03:59:46.286Z,3.86
2023-04-21T04:02:15.132Z,3.88
2023-04-21T04:04:43.999Z,3.91
2023-04-21T04:07:12.790Z,3.94
2023-04-21T04:09:41.281Z,3.97
2023-04-21T04:12:11.637Z,4.00
2023-04-21T04:14:40.730Z,4.06
2023-04-21T04:17:10.907Z,4.09
2023-04-21T04:19:39.636Z,4.14
2023-04-21T04:22:08.234Z,4.12
2023-04-21T04:24:37.020Z,4.17
2023-04-21T04:27:05.945Z,4.25
2023-04-21T04:29:35.144Z,4.33
2023-04-21T04:32:04.416Z,4.32
2023-04-21T04:34:37.792Z,4.34
2023-04-21T04:37:06.947Z,4.39
2023-04-21T04:39:37.279Z,4.32
2023-04-21T04:42:09.184Z,4.41
2023-04-21T04:44:37.835Z,4.43
2023-04-21T04:47:07.614Z,4.44
2023-04-21T04:49:38.214Z,4.51
2023-04-21T04:52:07.305Z,4.55
2023-04-21T04:54:36.544Z,4.60
2023-04-21T04:57:05.497Z,4.65
2023-04-21T04:59:36.814Z,4.75
2023-04-21T05:02:05.682Z,4.87
2023-04-21T05:04:35.482Z,4.93
2023-04-21T05:07:06.447Z,4.94
2023-04-21T05:09:35.216Z,5.09
2023-04-21T05:12:03.719Z,5.13
2023-04-21T05:14:32.365Z,5.19
2023-04-21T05:17:01.011Z,5.25
2023-04-21T05:19:29.761Z,5.25
2023-04-21T05:22:02.132Z,5.33
2023-04-21T05:24:32.163Z,5.41
2023-04-21T05:27:01.183Z,5.55
2023-04-21T05:29:29.822Z,5.58
2023-04-21T05:31:58.513Z,5.63
2023-04-21T05:34:27.076Z,5.66
2023-04-21T05:36:55.627Z,5.70
2023-04-21T05:39:24.207Z,5.79
2023-04-21T05:41:54.330Z,5.90
2023-04-21T05:44:22.907Z,5.97
2023-04-21T05:46:51.671Z,6.02
2023-04-21T05:49:20.357Z,6.16
2023-04-21T05:51:48.793Z,6.25
2023-04-21T05:54:18.295Z,6.30
2023-04-21T05:56:48.233Z,6.35
2023-04-21T05:59:18.357Z,6.40
2023-04-21T06:01:46.789Z,6.46
2023-04-21T06:04:15.741Z,6.40
2023-04-21T06:06:44.592Z,6.58
2023-04-21T06:09:15.830Z,6.64
2023-04-21T06:11:44.273Z,6.65
2023-04-21T06:14:12.729Z,6.64
2023-04-21T06:16:42.905Z,6.70
2023-04-21T06:19:11.670Z,6.79
2023-04-21T06:21:40.377Z,6.91
2023-04-21T06:24:09.497Z,6.98
2023-04-21T06:26:38.137Z,7.10
2023-04-21T06:29:06.717Z,7.20
2023-04-21T06:31:35.357Z,7.32
2023-04-21T06:34:05.375Z,7.40
2023-04-21T06:36:34.003Z,7.44
2023-04-21T06:39:02.477Z,7.54
2023-04-21T06:41:31.161Z,7.71
2023-04-21T06:43:59.682Z,7.87
2023-04-21T06:46:28.357Z,7.97
2023-04-21T06:48:57.159Z,8.01
2023-04-21T06:51:27.308Z,8.01
2023-04-21T06:53:55.948Z,8.08
2023-04-21T06:56:24.722Z,8.23
2023-04-21T06:58:53.370Z,8.35
2023-04-21T07:01:21.931Z,8.44
2023-04-21T07:03:50.799Z,8.52
2023-04-21T07:06:19.463Z,8.55
2023-04-21T07:08:49.505Z,8.65
2023-04-21T07:11:18.139Z,8.85
2023-04-21T07:13:46.788Z,8.90
2023-04-21T07:16:15.347Z,9.00
2023-04-21T07:18:44.111Z,9.13
2023-04-21T07:21:12.628Z,9.17
2023-04-21T07:23:41.303Z,9.22
2023-04-21T07:26:11.576Z,9.29
2023-04-21T07:28:40.971Z,9.44
2023-04-21T07:31:09.609Z,9.54
2023-04-21T07:33:38.295Z,9.63
2023-04-21T07:36:07.525Z,9.66
2023-04-21T07:38:36.213Z,9.77
2023-04-21T07:41:05.061Z,9.91
2023-04-21T07:43:35.178Z,9.89
2023-04-21T07:46:03.741Z,9.94
2023-04-21T07:48:32.604Z,10.04
2023-04-21T07:51:02.469Z,10.19
2023-04-21T07:53:31.849Z,10.34
2023-04-21T07:56:00.497Z,10.54
2023-04-21T07:58:29.199Z,10.60
2023-04-21T08:00:59.225Z,10.61
2023-04-21T08:03:28.169Z,10.85
2023-04-21T08:05:57.043Z,11.04
2023-04-21T08:08:25.785Z,11.16
2023-04-21T08:10:55.756Z,11.14
2023-04-21T08:13:25.876Z,11.16
2023-04-21T08:15:55.190Z,11.28
2023-04-21T08:18:25.340Z,11.57
2023-04-21T08:20:55.985Z,11.80
2023-04-21T08:23:24.791Z,11.91
2023-04-21T08:25:53.486Z,12.01
2023-04-21T08:28:22.150Z,11.92
2023-04-21T08:30:50.894Z,12.01
2023-04-21T08:33:19.490Z,12.05
2023-04-21T08:36:02.440Z,12.10
2023-04-21T08:38:32.836Z,12.26
2023-04-21T08:41:01.719Z,12.17
2023-04-21T08:43:30.993Z,12.14
2023-04-21T08:46:01.219Z,11.96
2023-04-21T08:48:32.492Z,11.94
2023-04-21T08:51:04.052Z,12.14
2023-04-21T08:53:32.769Z,12.16
2023-04-21T08:56:10.840Z,12.18
2023-04-21T08:58:41.984Z,12.34
2023-04-21T09:01:11.390Z,12.39
2023-04-21T09:03:40.206Z,12.31
2023-04-21T09:06:12.918Z,12.34
2023-04-21T09:08:45.110Z,12.52
2023-04-21T09:11:16.517Z,12.59
2023-04-21T09:13:45.763Z,12.74
2023-04-21T09:16:20.462Z,12.81
2023-04-21T09:18:49.504Z,12.96
2023-04-21T09:21:20.890Z,13.06
2023-04-21T09:23:50.924Z,13.25
2023-04-21T09:26:21.591Z,13.38
2023-04-21T09:28:51.871Z,13.51
2023-04-21T09:31:24.852Z,13.65
2023-04-21T09:33:59.607Z,13.77
2023-04-21T09:36:32.341Z,13.89
2023-04-21T09:39:30.048Z,14.01
2023-04-21T09:41:51.875Z,14.03
2023-04-21T09:44:21.352Z,14.10
2023-04-21T09:46:52.138Z,14.16
2023-04-21T09:49:24.717Z,14.31
2023-04-21T09:54:32.207Z,14.44
2023-04-21T09:57:03.113Z,14.60
2023-04-21T09:59:36.661Z,14.51
2023-04-21T10:02:08.784Z,14.66
2023-04-21T10:04:39.318Z,14.72
2023-04-21T10:07:11.758Z,14.86
2023-04-21T10:09:45.905Z,14.99
2023-04-21T10:12:16.694Z,14.94
2023-04-21T10:14:45.302Z,15.03
2023-04-21T10:17:15.037Z,15.04
2023-04-21T10:19:51.761Z,15.13
2023-04-21T10:22:35.449Z,15.16
2023-04-21T10:25:06.342Z,15.29
2023-04-21T10:27:35.692Z,15.20
2023-04-21T10:30:21.087Z,15.09
2023-04-21T10:32:50.335Z,15.37
2023-04-21T10:35:24.741Z,15.65
2023-04-21T10:37:55.033Z,15.54
2023-04-21T10:43:46.484Z,15.59
2023-04-21T10:46:36.945Z,15.16
2023-04-21T10:49:09.751Z,15.31
2023-04-21T10:52:06.222Z,15.44
2023-04-21T10:54:46.249Z,15.48
2023-04-21T10:57:17.119Z,15.27
2023-04-21T10:59:47.638Z,15.60
2023-04-21T11:02:17.758Z,15.86
2023-04-21T11:04:49.099Z,15.72
2023-04-21T11:07:18.920Z,15.84
2023-04-21T11:09:51.253Z,15.91
2023-04-21T11:12:20.156Z,15.89
2023-04-21T11:14:49.276Z,15.73
2023-04-21T11:17:20.301Z,15.74
2023-04-21T11:19:53.445Z,15.93
2023-04-21T11:22:24.173Z,15.74
2023-04-21T11:24:56.190Z,15.39
2023-04-21T11:27:25.156Z,15.55
2023-04-21T11:29:53.963Z,15.77
2023-04-21T11:32:22.753Z,15.66
2023-04-21T11:34:51.902Z,15.91
2023-04-21T11:37:27.274Z,16.01
2023-04-21T11:40:01.029Z,15.92
2023-04-21T11:42:30.331Z,16.06
2023-04-21T11:44:59.395Z,16.17
2023-04-21T11:47:29.806Z,16.23
2023-04-21T11:49:59.730Z,16.27
2023-04-21T11:52:29.891Z,16.13
2023-04-21T11:55:02.068Z,16.27
2023-04-21T11:57:32.760Z,16.19
2023-04-21T12:00:02.441Z,16.09
2023-04-21T12:02:34.237Z,16.24
2023-04-21T12:05:05.270Z,16.32
2023-04-21T12:07:34.755Z,16.13
2023-04-21T12:10:11.851Z,15.73
2023-04-21T12:12:41.906Z,15.76
2023-04-21T12:15:11.757Z,15.56
2023-04-21T12:17:41.020Z,15.61
2023-04-21T12:20:10.767Z,15.71
2023-04-21T12:22:39.406Z,15.84
2023-04-21T12:25:10.142Z,15.66
2023-04-21T12:27:38.908Z,15.47
2023-04-21T12:30:09.234Z,15.62
2023-04-21T12:32:37.791Z,15.58
2023-04-21T12:35:06.768Z,15.67
2023-04-21T12:37:35.383Z,15.54
2023-04-21T12:40:03.833Z,15.42
2023-04-21T12:42:36.003Z,15.38
2023-04-21T12:45:07.002Z,15.22
2023-04-21T12:47:35.691Z,15.14
2023-04-21T12:50:04.548Z,15.25
2023-04-21T12:52:33.208Z,15.12
2023-04-21T12:55:01.826Z,15.08
2023-04-21T12:57:32.069Z,14.98
2023-04-21T13:00:02.130Z,14.91
2023-04-21T13:02:31.507Z,14.82
2023-04-21T13:05:00.044Z,14.80
2023-04-21T13:07:31.555Z,14.91
2023-04-21T13:10:00.221Z,14.94
2023-04-21T13:12:28.692Z,14.88
2023-04-21T13:14:57.484Z,14.84
2023-04-21T13:17:27.413Z,14.84
2023-04-21T13:19:56.109Z,14.92
2023-04-21T13:22:24.730Z,14.95
2023-04-21T13:24:53.233Z,14.95
2023-04-21T13:27:21.699Z,15.21
2023-04-21T13:29:50.812Z,15.24
2023-04-21T13:32:19.338Z,15.36
2023-04-21T13:34:49.354Z,15.23
2023-04-21T13:37:18.158Z,15.23
2023-04-21T13:39:47.093Z,15.39
2023-04-21T13:42:15.597Z,15.34
2023-04-21T13:44:44.212Z,15.40
2023-04-21T13:47:12.998Z,15.36
2023-04-21T13:49:41.716Z,15.34
2023-04-21T13:52:11.729Z,15.38
2023-04-21T13:54:40.589Z,15.46
2023-04-21T13:57:09.051Z,15.54
2023-04-21T13:59:37.762Z,15.41
2023-04-21T14:02:06.391Z,15.39
2023-04-21T14:04:35.221Z,15.42
2023-04-21T14:07:04.309Z,15.44
2023-04-21T14:09:34.623Z,15.54
2023-04-21T14:12:04.186Z,15.57
2023-04-21T14:17:06.347Z,15.48
2023-04-21T14:19:36.514Z,15.52
2023-04-21T14:22:05.546Z,15.46
2023-04-21T14:24:35.592Z,15.55
2023-04-21T14:27:04.256Z,15.41
2023-04-21T14:29:33.109Z,15.39
2023-04-21T14:32:02.160Z,15.53
2023-04-21T14:34:30.750Z,15.53
2023-04-21T14:36:59.898Z,15.44
2023-04-21T14:39:28.817Z,15.45
2023-04-21T14:41:58.831Z,15.49
2023-04-21T14:44:27.303Z,15.58
2023-04-21T14:47:06.123Z,15.60
2023-04-21T14:49:39.671Z,15.68
2023-04-21T14:52:08.447Z,15.62
2023-04-21T14:54:37.094Z,15.44
2023-04-21T14:57:20.017Z,15.37
2023-04-21T14:59:51.166Z,15.33
2023-04-21T15:02:21.114Z,15.31
2023-04-21T15:04:50.805Z,15.22
2023-04-21T15:07:24.264Z,15.21
2023-04-21T15:09:53.778Z,15.27
2023-04-21T15:12:23.901Z,15.36
2023-04-21T15:14:52.573Z,15.42
2023-04-21T15:17:21.076Z,15.50
2023-04-21T15:19:49.793Z,15.27
2023-04-21T15:22:18.318Z,15.18
2023-04-21T15:24:47.419Z,15.19
2023-04-21T15:27:16.592Z,15.13
2023-04-21T15:29:46.672Z,15.04
2023-04-21T15:32:15.561Z,14.82
2023-04-21T15:34:44.295Z,14.73
2023-04-21T15:37:13.233Z,14.74
2023-04-21T15:39:41.813Z,14.75
2023-04-21T15:42:10.406Z,14.89
2023-04-21T15:44:39.786Z,14.94
2023-04-21T15:47:09.796Z,14.90
2023-04-21T15:49:38.647Z,14.80
2023-04-21T15:52:07.404Z,14.71
2023-04-21T15:54:36.649Z,14.63
2023-04-21T15:57:05.801Z,14.56
2023-04-21T15:59:34.725Z,14.60
2023-04-21T16:02:03.493Z,14.56
2023-04-21T16:04:33.866Z,14.59
2023-04-21T16:07:02.664Z,14.60
2023-04-21T16:09:31.185Z,14.60
2023-04-21T16:11:59.725Z,14.61
2023-04-21T16:14:31.805Z,14.61
2023-04-21T16:17:08.798Z,14.55
2023-04-21T16:19:42.516Z,14.63
2023-04-21T16:22:11.185Z,14.44
2023-04-21T16:24:40.100Z,14.29
2023-04-21T16:27:08.923Z,14.34
2023-04-21T16:29:37.494Z,14.43
2023-04-21T16:32:06.201Z,14.36
2023-04-21T16:34:34.864Z,14.41
2023-04-21T16:37:05.269Z,14.23
2023-04-21T16:39:33.785Z,14.19
2023-04-21T16:42:02.437Z,14.14
2023-04-21T16:44:31.089Z,14.12
2023-04-21T16:46:59.606Z,14.06
2023-04-21T16:49:30.366Z,14.07
2023-04-21T16:51:59.204Z,14.16
2023-04-21T16:54:29.066Z,14.15
2023-04-21T16:56:57.846Z,14.15
2023-04-21T16:59:26.427Z,14.09
2023-04-21T17:01:55.168Z,14.03
2023-04-21T17:04:23.919Z,14.03
2023-04-21T17:06:52.617Z,14.06
2023-04-21T17:09:21.064Z,14.05
2023-04-21T17:11:51.127Z,14.08
2023-04-21T17:14:19.815Z,14.01
2023-04-21T17:16:48.514Z,13.92
2023-04-21T17:19:17.341Z,13.83
2023-04-21T17:21:46.002Z,13.72
2023-04-21T17:24:14.545Z,13.59
2023-04-21T17:26:43.451Z,13.49
2023-04-21T17:29:13.564Z,13.47
2023-04-21T17:31:42.105Z,13.37
2023-04-21T17:34:10.643Z,13.31
2023-04-21T17:36:40.894Z,13.26
2023-04-21T17:39:09.651Z,13.25
2023-04-21T17:41:38.447Z,13.29
2023-04-21T17:44:07.128Z,13.26
2023-04-21T17:46:39.177Z,13.40
2023-04-21T17:49:07.932Z,13.43
2023-04-21T17:51:37.002Z,13.29
2023-04-21T17:54:05.788Z,13.11
2023-04-21T17:56:34.461Z,13.15
2023-04-21T17:59:02.996Z,12.85
2023-04-21T18:01:31.447Z,12.52
2023-04-21T18:04:02.117Z,12.27
2023-04-21T18:06:31.980Z,12.11
2023-04-21T18:09:00.564Z,12.14
2023-04-21T18:11:29.562Z,12.09
2023-04-21T18:13:58.258Z,12.11
2023-04-21T18:16:27.037Z,12.16
2023-04-21T18:18:56.117Z,12.13
2023-04-21T18:21:26.522Z,12.16
2023-04-21T18:23:54.998Z,12.13
2023-04-21T18:26:23.595Z,12.14
2023-04-21T18:28:52.241Z,12.09
2023-04-21T18:31:21.896Z,12.09
2023-04-21T18:33:50.627Z,12.08
2023-04-21T18:36:19.111Z,12.08
2023-04-21T18:38:49.581Z,12.19
2023-04-21T18:41:18.297Z,12.14
2023-04-21T18:43:47.111Z,12.20
2023-04-21T18:46:16.169Z,12.13
2023-04-21T18:48:44.915Z,12.15
2023-04-21T18:51:14.773Z,12.11
2023-04-21T18:53:43.818Z,12.08
2023-04-21T18:56:13.939Z,12.04
2023-04-21T18:58:42.592Z,11.95
2023-04-21T19:01:11.277Z,11.87
2023-04-21T19:03:40.182Z,11.79
2023-04-21T19:06:08.712Z,11.79
2023-04-21T19:08:42.812Z,11.75
2023-04-21T19:11:14.774Z,11.69
2023-04-21T19:13:43.430Z,11.71
2023-04-21T19:16:12.981Z,11.72
2023-04-21T19:18:41.847Z,11.68
2023-04-21T19:21:13.615Z,11.64
2023-04-21T19:23:42.644Z,11.63
2023-04-21T19:26:12.120Z,11.54
2023-04-21T19:28:42.655Z,11.52
2023-04-21T19:31:11.252Z,11.33
2023-04-21T19:33:39.723Z,11.30
2023-04-21T19:36:09.712Z,11.25
2023-04-21T19:38:38.311Z,11.21
2023-04-21T19:41:07.046Z,10.69
2023-04-21T19:43:35.749Z,10.70
2023-04-21T19:46:05.722Z,10.69
2023-04-21T19:48:34.340Z,10.46
2023-04-21T19:51:02.936Z,10.42
2023-04-21T19:53:31.536Z,10.34
2023-04-21T19:55:59.968Z,10.13
2023-04-21T19:58:39.740Z,10.01
2023-04-21T20:01:11.060Z,9.64
2023-04-21T20:03:39.827Z,9.31
2023-04-21T20:06:08.426Z,9.47
2023-04-21T20:08:37.190Z,9.40
2023-04-21T20:11:05.854Z,9.36
2023-04-21T20:13:34.373Z,9.48
2023-04-21T20:16:03.713Z,9.52
2023-04-21T20:18:33.933Z,9.55
2023-04-21T20:21:02.537Z,9.46
2023-04-21T20:23:31.016Z,9.55
2023-04-21T20:25:59.562Z,9.56
2023-04-21T20:28:28.480Z,9.60
2023-04-21T20:30:57.512Z,9.55
2023-04-21T20:33:25.998Z,9.59
2023-04-21T20:35:55.997Z,9.50
2023-04-21T20:38:25.026Z,9.37
2023-04-21T20:40:54.063Z,9.34
2023-04-21T20:43:22.709Z,9.47
2023-04-21T20:45:51.389Z,9.39
2023-04-21T20:48:20.091Z,9.48
2023-04-21T20:50:51.238Z,9.56
2023-04-21T20:53:22.430Z,9.32
2023-04-21T20:55:50.965Z,9.24
2023-04-21T20:58:19.805Z,9.26
2023-04-21T21:00:48.408Z,9.20
2023-04-21T21:03:17.448Z,9.15
2023-04-21T21:05:46.080Z,9.17
2023-04-21T21:08:15.282Z,9.13
2023-04-21T21:10:45.232Z,9.18
2023-04-21T21:13:13.759Z,9.26
2023-04-21T21:15:42.409Z,9.34
2023-04-21T21:18:10.979Z,9.36
2023-04-21T21:20:39.649Z,9.35
2023-04-21T21:23:08.154Z,9.25
2023-04-21T21:25:36.697Z,9.19
2023-04-21T21:28:06.751Z,9.16
2023-04-21T21:30:35.667Z,9.11
2023-04-21T21:33:04.138Z,9.07
2023-04-21T21:35:33.714Z,9.02
2023-04-21T21:38:02.290Z,8.92
2023-04-21T21:40:31.032Z,8.86
2023-04-21T21:42:59.452Z,8.71
2023-04-21T21:45:29.572Z,8.69
2023-04-21T21:47:58.189Z,8.57
2023-04-21T21:50:26.909Z,8.29
2023-04-21T21:52:55.653Z,8.24
2023-04-21T21:55:24.203Z,7.87
2023-04-21T21:57:52.726Z,7.66
2023-04-21T22:00:21.352Z,7.49
2023-04-21T22:02:51.440Z,7.24
2023-04-21T22:05:20.306Z,7.32
2023-04-21T22:07:49.253Z,7.31
2023-04-21T22:10:17.787Z,7.20
2023-04-21T22:12:46.326Z,6.87
2023-04-21T22:15:14.947Z,6.49
2023-04-21T22:17:43.823Z,6.15
2023-04-21T22:20:15.408Z,5.96
2023-04-21T22:22:44.155Z,5.86
2023-04-21T22:25:12.647Z,5.65
2023-04-21T22:27:43.951Z,5.75
2023-04-21T22:30:13.499Z,5.85
2023-04-21T22:32:42.021Z,5.95
2023-04-21T22:35:11.166Z,5.90
2023-04-21T22:37:41.051Z,5.61
2023-04-21T22:40:10.964Z,5.41
2023-04-21T22:42:39.785Z,5.23
2023-04-21T22:45:09.655Z,5.23
2023-04-21T22:47:38.285Z,5.13
2023-04-21T22:50:09.348Z,4.95
2023-04-21T22:52:37.972Z,5.00
2023-04-21T22:55:09.370Z,4.95
2023-04-21T22:57:39.265Z,5.03
2023-04-21T23:00:09.830Z,5.11
2023-04-21T23:02:38.791Z,5.18
2023-04-21T23:05:08.417Z,5.11
2023-04-21T23:07:37.060Z,5.23
2023-04-21T23:10:07.828Z,5.28
2023-04-21T23:12:36.512Z,5.31
2023-04-21T23:15:06.093Z,5.30
2023-04-21T23:17:34.649Z,5.30
2023-04-21T23:20:05.649Z,5.28
2023-04-21T23:22:34.016Z,5.29
2023-04-21T23:25:02.824Z,5.25
2023-04-21T23:27:32.811Z,5.23
2023-04-21T23:30:01.373Z,5.22
2023-04-21T23:32:30.188Z,5.21
2023-04-21T23:34:58.832Z,5.15
2023-04-21T23:37:27.312Z,5.06
2023-04-21T23:39:55.808Z,5.00
2023-04-21T23:42:24.435Z,5.00
2023-04-21T23:44:54.474Z,5.00
2023-04-21T23:47:22.978Z,5.04
2023-04-21T23:49:51.537Z,5.21
2023-04-21T23:52:20.094Z,5.29
2023-04-21T23:54:48.723Z,5.48
2023-04-21T23:57:17.215Z,5.61
2023-04-21T23:59:46.017Z,5.69
